createdAt,value
2019-03-20T00:01:44.003Z,6.10
2019-03-20T00:04:10.744Z,14.07
2019-03-20T00:06:39.364Z,10.88
2019-03-20T00:09:08.756Z,7.60
2019-03-20T00:11:37.349Z,9.80
2019-03-20T00:14:06.027Z,9.93
2019-03-20T00:16:34.729Z,11.85
2019-03-20T00:19:03.349Z,15.72
2019-03-20T00:21:31.940Z,12.05
2019-03-20T00:24:00.559Z,7.20
2019-03-20T00:26:29.149Z,9.53
2019-03-20T00:28:57.764Z,9.23
2019-03-20T00:31:26.369Z,10.98
2019-03-20T00:33:54.985Z,10.38
2019-03-20T00:36:23.604Z,13.48
2019-03-20T00:38:52.214Z,10.20
2019-03-20T00:41:20.811Z,8.55
2019-03-20T00:43:49.446Z,11.08
2019-03-20T00:46:18.042Z,7.45
2019-03-20T00:48:46.676Z,11.53
2019-03-20T00:51:15.293Z,11.38
2019-03-20T00:53:43.907Z,9.55
2019-03-20T00:56:12.540Z,7.17
2019-03-20T00:58:41.136Z,9.18
2019-03-20T01:01:09.786Z,11.28
2019-03-20T01:03:38.380Z,11.88
2019-03-20T01:06:07.158Z,9.75
2019-03-20T01:08:35.748Z,9.13
2019-03-20T01:11:04.455Z,7.33
2019-03-20T01:13:33.056Z,10.68
2019-03-20T01:16:01.769Z,11.05
2019-03-20T01:18:30.368Z,8.40
2019-03-20T01:20:59.020Z,15.70
2019-03-20T01:23:27.729Z,8.00
2019-03-20T01:25:56.634Z,8.33
2019-03-20T01:28:25.239Z,10.13
2019-03-20T01:30:53.873Z,9.50
2019-03-20T01:33:22.489Z,8.43
2019-03-20T01:35:51.093Z,9.55
2019-03-20T01:38:19.676Z,10.40
2019-03-20T01:40:48.303Z,12.88
2019-03-20T01:43:16.957Z,7.65
2019-03-20T01:45:45.556Z,12.90
2019-03-20T01:48:16.654Z,9.63
2019-03-20T01:50:45.242Z,7.40
2019-03-20T01:53:13.875Z,9.23
2019-03-20T01:55:42.497Z,7.70
2019-03-20T01:58:11.176Z,9.60
2019-03-20T02:00:39.865Z,6.95
2019-03-20T02:03:08.539Z,10.75
2019-03-20T02:05:37.146Z,11.73
2019-03-20T02:08:05.845Z,8.60
2019-03-20T02:10:34.434Z,6.72
2019-03-20T02:13:03.084Z,12.68
2019-03-20T02:15:39.007Z,13.35
2019-03-20T02:18:02.182Z,8.10
2019-03-20T02:20:30.838Z,8.90
2019-03-20T02:22:59.450Z,8.58
2019-03-20T02:25:28.047Z,7.47
2019-03-20T02:27:56.757Z,7.20
2019-03-20T02:30:25.376Z,11.95
2019-03-20T02:32:54.017Z,13.00
2019-03-20T02:35:22.623Z,9.98
2019-03-20T02:37:51.256Z,8.40
2019-03-20T02:40:19.935Z,6.28
2019-03-20T02:42:48.533Z,10.63
2019-03-20T02:45:17.250Z,7.92
2019-03-20T02:47:45.836Z,7.40
2019-03-20T02:50:15.733Z,7.00
2019-03-20T02:52:44.452Z,12.98
2019-03-20T02:55:13.196Z,6.37
2019-03-20T02:57:41.874Z,7.08
2019-03-20T03:00:12.272Z,9.20
2019-03-20T03:02:41.064Z,9.50
2019-03-20T03:05:10.185Z,14.20
2019-03-20T03:07:38.967Z,9.25
2019-03-20T03:10:08.639Z,8.30
2019-03-20T03:12:37.225Z,7.83
2019-03-20T03:15:06.095Z,10.90
2019-03-20T03:17:34.750Z,7.62
2019-03-20T03:20:03.702Z,10.88
2019-03-20T03:22:32.316Z,13.28
2019-03-20T03:25:00.936Z,10.05
2019-03-20T03:27:29.572Z,9.13
2019-03-20T03:29:58.260Z,12.15
2019-03-20T03:32:26.899Z,10.13
2019-03-20T03:34:55.528Z,7.58
2019-03-20T03:37:24.131Z,8.88
2019-03-20T03:39:52.741Z,11.85
2019-03-20T03:42:21.452Z,12.53
2019-03-20T03:44:50.143Z,9.75
2019-03-20T03:47:18.761Z,9.40
2019-03-20T03:49:47.564Z,11.00
2019-03-20T03:52:16.228Z,9.35
2019-03-20T03:54:44.816Z,6.83
2019-03-20T03:57:13.515Z,8.60
2019-03-20T03:59:42.115Z,8.65
2019-03-20T04:02:10.720Z,7.75
2019-03-20T04:04:39.331Z,9.23
2019-03-20T04:07:07.963Z,7.00
2019-03-20T04:09:36.554Z,19.32
2019-03-20T04:12:05.269Z,13.65
2019-03-20T04:14:33.856Z,9.00
2019-03-20T04:17:02.542Z,11.12
2019-03-20T04:19:31.226Z,9.80
2019-03-20T04:21:59.906Z,13.00
2019-03-20T04:24:28.524Z,8.45
2019-03-20T04:26:57.209Z,9.13
2019-03-20T04:29:25.843Z,13.22
2019-03-20T04:31:54.468Z,12.88
2019-03-20T04:34:23.195Z,13.00
2019-03-20T04:36:51.792Z,7.95
2019-03-20T04:39:20.418Z,10.40
2019-03-20T04:41:49.008Z,8.63
2019-03-20T04:44:17.624Z,9.08
2019-03-20T04:46:46.221Z,11.35
2019-03-20T04:49:14.826Z,8.58
2019-03-20T04:51:43.421Z,11.00
2019-03-20T04:54:12.050Z,11.38
2019-03-20T04:56:40.692Z,12.78
2019-03-20T04:59:09.300Z,9.28
2019-03-20T05:01:37.943Z,14.90
2019-03-20T05:04:06.628Z,9.68
2019-03-20T05:06:35.350Z,11.95
2019-03-20T05:09:04.856Z,14.00
2019-03-20T05:11:33.475Z,11.65
2019-03-20T05:14:02.091Z,12.43
2019-03-20T05:16:30.713Z,12.85
2019-03-20T05:18:59.365Z,14.30
2019-03-20T05:21:27.947Z,14.05
2019-03-20T05:23:56.614Z,12.50
2019-03-20T05:26:25.274Z,16.45
2019-03-20T05:28:53.880Z,14.43
2019-03-20T05:31:22.494Z,13.25
2019-03-20T05:33:51.088Z,13.70
2019-03-20T05:36:19.718Z,10.72
2019-03-20T05:38:48.318Z,14.00
2019-03-20T05:41:16.933Z,8.73
2019-03-20T05:43:45.562Z,14.47
2019-03-20T05:46:14.199Z,13.62
2019-03-20T05:48:42.819Z,9.58
2019-03-20T05:51:11.444Z,13.95
2019-03-20T05:53:40.046Z,10.90
2019-03-20T05:56:08.681Z,9.95
2019-03-20T05:58:37.311Z,13.75
2019-03-20T06:01:05.933Z,12.80
2019-03-20T06:03:34.551Z,14.85
2019-03-20T06:06:03.165Z,24.80
2019-03-20T06:08:31.807Z,12.85
2019-03-20T06:11:00.415Z,14.65
2019-03-20T06:13:29.033Z,14.63
2019-03-20T06:15:57.645Z,9.53
2019-03-20T06:18:26.244Z,9.93
2019-03-20T06:20:54.862Z,14.55
2019-03-20T06:23:23.491Z,16.57
2019-03-20T06:25:52.099Z,12.10
2019-03-20T06:28:20.705Z,14.93
2019-03-20T06:30:49.307Z,13.38
2019-03-20T06:33:17.939Z,10.72
2019-03-20T06:35:46.558Z,16.50
2019-03-20T06:38:15.262Z,12.50
2019-03-20T06:40:43.864Z,11.18
2019-03-20T06:43:12.482Z,12.45
2019-03-20T06:45:41.114Z,16.77
2019-03-20T06:48:09.694Z,19.57
2019-03-20T06:50:38.293Z,11.30
2019-03-20T06:53:06.905Z,14.90
2019-03-20T06:55:35.526Z,16.90
2019-03-20T06:58:04.142Z,13.38
2019-03-20T07:00:58.076Z,11.10
2019-03-20T07:03:55.767Z,12.05
2019-03-20T07:07:01.250Z,14.58
2019-03-20T07:09:38.630Z,16.75
2019-03-20T07:12:07.244Z,10.75
2019-03-20T07:14:35.944Z,19.77
2019-03-20T07:17:04.645Z,12.55
2019-03-20T07:19:33.287Z,13.50
2019-03-20T07:22:01.898Z,11.43
2019-03-20T07:24:30.535Z,11.00
2019-03-20T07:26:59.250Z,16.42
2019-03-20T07:29:27.925Z,13.00
2019-03-20T07:31:56.700Z,10.58
2019-03-20T07:34:25.317Z,11.60
2019-03-20T07:36:53.962Z,12.15
2019-03-20T07:39:22.638Z,11.88
2019-03-20T07:41:51.395Z,15.10
2019-03-20T07:44:20.117Z,11.88
2019-03-20T07:46:48.741Z,13.03
2019-03-20T07:49:17.349Z,13.65
2019-03-20T07:51:45.987Z,13.10
2019-03-20T07:54:14.687Z,12.53
2019-03-20T07:56:43.331Z,11.80
2019-03-20T07:59:11.948Z,13.20
2019-03-20T08:01:40.633Z,17.77
2019-03-20T08:04:09.308Z,10.10
2019-03-20T08:06:37.913Z,12.13
2019-03-20T08:09:07.609Z,12.85
2019-03-20T08:11:36.316Z,23.02
2019-03-20T08:14:05.004Z,14.83
2019-03-20T08:16:33.614Z,20.95
2019-03-20T08:19:02.263Z,15.58
2019-03-20T08:21:30.913Z,11.90
2019-03-20T08:23:59.550Z,12.90
2019-03-20T08:26:28.169Z,15.63
2019-03-20T08:28:56.768Z,13.00
2019-03-20T08:31:25.391Z,11.48
2019-03-20T08:33:54.061Z,16.95
2019-03-20T08:36:22.744Z,12.23
2019-03-20T08:38:51.334Z,11.35
2019-03-20T08:41:19.932Z,11.40
2019-03-20T08:43:48.574Z,18.07
2019-03-20T08:46:17.264Z,13.85
2019-03-20T08:48:48.245Z,13.00
2019-03-20T08:51:16.214Z,12.95
2019-03-20T08:53:44.852Z,10.05
2019-03-20T08:56:13.476Z,21.05
2019-03-20T08:58:42.143Z,12.93
2019-03-20T09:01:10.744Z,17.12
2019-03-20T09:03:39.365Z,12.63
2019-03-20T09:06:07.996Z,13.80
2019-03-20T09:08:36.628Z,12.10
2019-03-20T09:11:05.309Z,11.45
2019-03-20T09:13:33.946Z,12.23
2019-03-20T09:16:02.541Z,9.78
2019-03-20T09:18:31.157Z,12.95
2019-03-20T09:20:59.857Z,11.57
2019-03-20T09:23:28.482Z,15.65
2019-03-20T09:25:57.081Z,10.20
2019-03-20T09:28:25.718Z,12.70
2019-03-20T09:30:54.407Z,10.13
2019-03-20T09:33:23.041Z,13.90
2019-03-20T09:35:51.678Z,10.93
2019-03-20T09:38:20.426Z,15.75
2019-03-20T09:40:49.118Z,9.08
2019-03-20T09:43:17.747Z,11.08
2019-03-20T09:45:46.366Z,11.33
2019-03-20T09:48:15.014Z,13.10
2019-03-20T09:50:43.628Z,15.25
2019-03-20T09:53:12.258Z,10.55
2019-03-20T09:55:40.896Z,13.22
2019-03-20T09:58:11.753Z,11.45
2019-03-20T10:00:39.846Z,13.62
2019-03-20T10:03:08.445Z,10.30
2019-03-20T10:05:37.065Z,8.40
2019-03-20T10:08:05.738Z,13.18
2019-03-20T10:10:34.358Z,13.28
2019-03-20T10:13:02.962Z,10.82
2019-03-20T10:15:31.590Z,9.88
2019-03-20T10:18:00.314Z,12.73
2019-03-20T10:20:28.944Z,14.23
2019-03-20T10:22:57.564Z,10.78
2019-03-20T10:25:26.248Z,9.53
2019-03-20T10:27:54.844Z,8.53
2019-03-20T10:30:23.485Z,8.98
2019-03-20T10:32:52.192Z,11.48
2019-03-20T10:35:21.072Z,5.85
2019-03-20T10:37:49.769Z,8.73
2019-03-20T10:40:19.738Z,9.55
2019-03-20T10:42:48.357Z,6.00
2019-03-20T10:45:17.268Z,7.92
2019-03-20T10:47:46.030Z,5.30
2019-03-20T10:50:16.545Z,8.08
2019-03-20T10:52:45.251Z,6.65
2019-03-20T10:55:14.104Z,6.30
2019-03-20T10:57:42.876Z,7.53
2019-03-20T11:00:15.833Z,5.87
2019-03-20T11:02:44.488Z,7.63
2019-03-20T11:05:13.269Z,6.33
2019-03-20T11:07:41.961Z,7.07
2019-03-20T11:10:11.630Z,5.50
2019-03-20T11:12:40.304Z,6.95
2019-03-20T11:15:11.062Z,3.45
2019-03-20T11:17:45.058Z,6.00
2019-03-20T11:20:15.318Z,3.15
2019-03-20T11:22:44.028Z,4.95
2019-03-20T11:25:14.056Z,4.77
2019-03-20T11:27:42.788Z,5.20
2019-03-20T11:30:17.889Z,12.93
2019-03-20T11:32:46.651Z,5.93
2019-03-20T11:35:15.350Z,9.17
2019-03-20T11:37:43.949Z,5.37
2019-03-20T11:40:15.508Z,4.12
2019-03-20T11:42:44.107Z,7.20
2019-03-20T11:45:13.138Z,9.10
2019-03-20T11:47:41.774Z,5.45
2019-03-20T11:50:13.728Z,10.40
2019-03-20T11:52:42.426Z,5.97
2019-03-20T11:55:11.088Z,7.90
2019-03-20T11:57:40.450Z,7.60
2019-03-20T12:00:11.262Z,5.70
2019-03-20T12:02:39.950Z,5.23
2019-03-20T12:05:08.667Z,7.58
2019-03-20T12:07:37.342Z,6.93
2019-03-20T12:10:07.084Z,6.33
2019-03-20T12:12:35.713Z,4.30
2019-03-20T12:15:05.027Z,4.93
2019-03-20T12:17:33.658Z,5.97
2019-03-20T12:20:02.252Z,7.53
2019-03-20T12:22:30.929Z,4.40
2019-03-20T12:24:59.528Z,7.00
2019-03-20T12:27:28.221Z,5.97
2019-03-20T12:29:56.864Z,4.53
2019-03-20T12:32:25.570Z,7.30
2019-03-20T12:34:54.241Z,7.83
2019-03-20T12:37:22.785Z,4.90
2019-03-20T12:39:53.493Z,6.37
2019-03-20T12:42:21.801Z,4.53
2019-03-20T12:44:50.434Z,7.53
2019-03-20T12:47:19.042Z,6.73
2019-03-20T12:49:47.661Z,6.30
2019-03-20T12:52:16.306Z,8.77
2019-03-20T12:54:44.929Z,8.93
2019-03-20T12:57:13.558Z,4.57
2019-03-20T12:59:42.184Z,9.33
2019-03-20T13:02:10.787Z,6.20
2019-03-20T13:04:39.425Z,6.33
2019-03-20T13:07:08.043Z,5.90
2019-03-20T13:09:36.656Z,5.47
2019-03-20T13:12:05.248Z,9.10
2019-03-20T13:14:33.951Z,6.20
2019-03-20T13:17:02.564Z,4.33
2019-03-20T13:19:31.167Z,8.27
2019-03-20T13:21:59.802Z,7.70
2019-03-20T13:24:28.433Z,7.50
2019-03-20T13:26:57.061Z,5.63
2019-03-20T13:29:25.716Z,4.23
2019-03-20T13:31:54.355Z,5.60
2019-03-20T13:34:23.157Z,6.20
2019-03-20T13:36:51.764Z,6.33
2019-03-20T13:39:20.363Z,6.67
2019-03-20T13:41:48.968Z,6.87
2019-03-20T13:44:17.569Z,8.03
2019-03-20T13:46:46.205Z,8.67
2019-03-20T13:49:14.820Z,4.90
2019-03-20T13:51:43.431Z,8.27
2019-03-20T13:54:12.046Z,5.10
2019-03-20T13:56:40.642Z,6.70
2019-03-20T13:59:09.302Z,8.73
2019-03-20T14:01:37.899Z,4.90
2019-03-20T14:04:06.523Z,6.83
2019-03-20T14:06:35.130Z,4.17
2019-03-20T14:09:05.503Z,5.57
2019-03-20T14:11:34.156Z,10.27
2019-03-20T14:14:02.777Z,5.43
2019-03-20T14:16:31.439Z,5.37
2019-03-20T14:19:00.061Z,3.70
2019-03-20T14:21:28.694Z,6.50
2019-03-20T14:23:57.370Z,4.90
2019-03-20T14:26:25.976Z,7.90
2019-03-20T14:28:54.648Z,4.70
2019-03-20T14:31:23.276Z,4.63
2019-03-20T14:33:51.906Z,3.53
2019-03-20T14:36:20.568Z,6.07
2019-03-20T14:38:49.222Z,4.27
2019-03-20T14:41:21.808Z,7.70
2019-03-20T14:43:48.174Z,4.60
2019-03-20T14:46:16.810Z,5.23
2019-03-20T14:48:45.411Z,4.93
2019-03-20T14:51:14.229Z,6.53
2019-03-20T14:53:42.802Z,8.30
2019-03-20T14:56:11.605Z,4.63
2019-03-20T14:58:40.377Z,4.53
2019-03-20T15:01:08.960Z,6.60
2019-03-20T15:03:37.633Z,4.23
2019-03-20T15:06:06.320Z,5.43
2019-03-20T15:08:34.920Z,3.00
2019-03-20T15:11:03.543Z,5.23
2019-03-20T15:13:32.161Z,4.87
2019-03-20T15:16:04.718Z,3.63
2019-03-20T15:18:33.343Z,5.47
2019-03-20T15:21:01.957Z,4.43
2019-03-20T15:23:30.535Z,3.20
2019-03-20T15:25:59.189Z,3.97
2019-03-20T15:28:27.788Z,9.90
2019-03-20T15:30:56.387Z,6.33
2019-03-20T15:33:25.015Z,8.30
2019-03-20T15:35:53.633Z,5.90
2019-03-20T15:38:22.329Z,6.90
2019-03-20T15:40:56.226Z,3.30
2019-03-20T15:43:21.393Z,6.93
2019-03-20T15:45:50.145Z,3.83
2019-03-20T15:48:18.744Z,4.53
2019-03-20T15:50:47.442Z,3.97
2019-03-20T15:53:16.099Z,5.23
2019-03-20T15:55:44.768Z,5.40
2019-03-20T15:58:13.392Z,5.20
2019-03-20T16:00:42.014Z,3.20
2019-03-20T16:03:12.933Z,4.30
2019-03-20T16:05:41.643Z,8.80
2019-03-20T16:08:10.256Z,3.80
2019-03-20T16:10:38.941Z,4.93
2019-03-20T16:13:07.544Z,5.07
2019-03-20T16:15:36.235Z,3.27
2019-03-20T16:18:05.064Z,4.57
2019-03-20T16:20:33.675Z,5.13
2019-03-20T16:23:02.274Z,7.77
2019-03-20T16:25:30.905Z,6.50
2019-03-20T16:27:59.558Z,8.30
2019-03-20T16:30:28.195Z,4.50
2019-03-20T16:32:56.868Z,4.03
2019-03-20T16:35:25.608Z,7.90
2019-03-20T16:37:54.317Z,5.07
2019-03-20T16:40:23.936Z,7.60
2019-03-20T16:42:52.600Z,6.80
2019-03-20T16:45:23.335Z,8.27
2019-03-20T16:47:51.957Z,4.00
2019-03-20T16:50:20.677Z,5.27
2019-03-20T16:52:49.529Z,6.37
2019-03-20T16:55:18.348Z,5.97
2019-03-20T16:57:46.988Z,4.77
2019-03-20T17:00:18.531Z,6.03
2019-03-20T17:02:47.140Z,6.70
2019-03-20T17:05:15.835Z,4.27
2019-03-20T17:07:44.450Z,9.40
2019-03-20T17:10:21.461Z,5.33
2019-03-20T17:12:50.099Z,5.33
2019-03-20T17:15:23.829Z,4.30
2019-03-20T17:17:52.540Z,4.07
2019-03-20T17:20:21.244Z,5.13
2019-03-20T17:22:49.930Z,3.93
2019-03-20T17:25:18.554Z,2.87
2019-03-20T17:27:47.246Z,5.47
2019-03-20T17:30:20.981Z,6.80
2019-03-20T17:32:49.608Z,3.87
2019-03-20T17:35:18.254Z,6.13
2019-03-20T17:37:46.944Z,4.00
2019-03-20T17:40:16.539Z,8.90
2019-03-20T17:42:45.141Z,6.30
2019-03-20T17:45:14.829Z,2.50
2019-03-20T17:47:43.597Z,5.87
2019-03-20T17:50:15.209Z,5.13
2019-03-20T17:52:45.255Z,5.50
2019-03-20T17:55:14.101Z,9.10
2019-03-20T17:57:42.735Z,6.37
2019-03-20T18:00:16.947Z,6.50
2019-03-20T18:02:45.637Z,4.13
2019-03-20T18:05:14.452Z,4.20
2019-03-20T18:07:43.129Z,6.23
2019-03-20T18:10:11.767Z,4.27
2019-03-20T18:12:40.437Z,9.03
2019-03-20T18:15:10.776Z,8.50
2019-03-20T18:17:39.498Z,8.23
2019-03-20T18:20:09.336Z,9.30
2019-03-20T18:22:37.943Z,7.70
2019-03-20T18:25:07.155Z,6.33
2019-03-20T18:27:35.756Z,5.40
2019-03-20T18:30:06.465Z,5.23
2019-03-20T18:32:35.086Z,4.67
2019-03-20T18:35:03.884Z,8.07
2019-03-20T18:37:32.517Z,10.57
2019-03-20T18:40:01.140Z,5.13
2019-03-20T18:42:29.756Z,4.10
2019-03-20T18:44:58.415Z,4.92
2019-03-20T18:47:27.040Z,7.20
2019-03-20T18:49:55.683Z,4.63
2019-03-20T18:52:24.280Z,4.33
2019-03-20T18:54:52.907Z,2.52
2019-03-20T18:57:21.563Z,3.90
2019-03-20T18:59:50.244Z,4.58
2019-03-20T19:02:18.899Z,5.05
2019-03-20T19:04:47.516Z,11.53
2019-03-20T19:07:16.218Z,7.15
2019-03-20T19:09:44.894Z,7.42
2019-03-20T19:12:13.515Z,5.10
2019-03-20T19:14:42.135Z,3.60
2019-03-20T19:17:10.789Z,5.50
2019-03-20T19:19:39.477Z,4.85
2019-03-20T19:22:08.086Z,4.55
2019-03-20T19:24:36.707Z,4.17
2019-03-20T19:27:05.390Z,5.40
2019-03-20T19:29:34.048Z,7.95
2019-03-20T19:32:02.635Z,4.85
2019-03-20T19:34:31.327Z,6.87
2019-03-20T19:36:59.963Z,4.50
2019-03-20T19:39:28.659Z,3.02
2019-03-20T19:41:57.416Z,3.95
2019-03-20T19:44:26.063Z,3.25
2019-03-20T19:46:56.812Z,6.55
2019-03-20T19:50:02.757Z,6.80
2019-03-20T19:52:38.649Z,7.53
2019-03-20T19:55:13.339Z,6.30
2019-03-20T19:57:44.560Z,11.65
2019-03-20T20:00:17.822Z,6.55
2019-03-20T20:02:47.331Z,7.03
2019-03-20T20:05:19.144Z,9.38
2019-03-20T20:07:51.611Z,6.10
2019-03-20T20:10:21.605Z,9.78
2019-03-20T20:12:55.654Z,7.92
2019-03-20T20:15:27.252Z,10.65
2019-03-20T20:17:56.388Z,9.28
2019-03-20T20:20:27.099Z,7.70
2019-03-20T20:22:56.109Z,10.78
2019-03-20T20:25:32.072Z,8.13
2019-03-20T20:28:17.544Z,6.92
2019-03-20T20:31:04.178Z,9.38
2019-03-20T20:33:52.326Z,12.63
2019-03-20T20:36:43.857Z,5.70
2019-03-20T20:39:21.965Z,4.40
2019-03-20T20:41:51.341Z,5.28
2019-03-20T20:44:20.732Z,6.53
2019-03-20T20:46:52.051Z,4.10
2019-03-20T20:49:24.558Z,3.77
2019-03-20T20:51:55.217Z,4.15
2019-03-20T20:54:42.114Z,4.25
2019-03-20T20:57:15.683Z,4.10
2019-03-20T20:59:44.954Z,7.40
2019-03-20T21:02:17.030Z,5.17
2019-03-20T21:04:47.479Z,5.28
2019-03-20T21:07:17.764Z,5.87
2019-03-20T21:09:52.083Z,5.35
2019-03-20T21:12:43.013Z,5.05
2019-03-20T21:15:46.246Z,5.62
2019-03-20T21:18:59.744Z,9.33
2019-03-20T21:21:50.383Z,6.40
2019-03-20T21:24:28.995Z,5.87
2019-03-20T21:27:45.919Z,5.00
2019-03-20T21:31:02.523Z,6.72
2019-03-20T21:34:34.875Z,7.40
2019-03-20T21:37:53.297Z,6.20
2019-03-20T21:40:24.434Z,10.15
2019-03-20T21:43:29.710Z,8.33
2019-03-20T21:46:31.352Z,5.97
2019-03-20T21:49:02.865Z,5.78
2019-03-20T21:51:42.722Z,6.45
2019-03-20T21:54:59.751Z,6.83
2019-03-20T21:58:00.428Z,6.72
2019-03-20T22:01:03.450Z,4.62
2019-03-20T22:03:33.798Z,5.10
2019-03-20T22:06:41.209Z,10.68
2019-03-20T22:09:29.452Z,5.22
2019-03-20T22:12:38.419Z,7.10
2019-03-20T22:15:36.751Z,7.67
2019-03-20T22:18:29.849Z,5.65
2019-03-20T22:21:12.489Z,8.83
2019-03-20T22:24:52.189Z,8.85
2019-03-20T22:28:01.648Z,6.00
2019-03-20T22:30:40.230Z,6.28
2019-03-20T22:33:45.241Z,9.83
2019-03-20T22:36:23.935Z,10.93
2019-03-20T22:39:42.939Z,7.03
2019-03-20T22:42:18.528Z,12.10
2019-03-20T22:45:01.066Z,10.10
2019-03-20T22:48:13.017Z,8.08
2019-03-20T22:57:54.149Z,6.20
2019-03-20T23:00:25.521Z,5.12
2019-03-20T23:03:06.040Z,8.00
2019-03-20T23:05:44.785Z,9.68
2019-03-20T23:08:17.660Z,7.10
2019-03-20T23:10:50.542Z,7.42
2019-03-20T23:13:42.034Z,8.00
2019-03-20T23:16:14.933Z,10.48
2019-03-20T23:18:53.530Z,6.62
2019-03-20T23:21:44.970Z,13.13
2019-03-20T23:24:26.632Z,5.75
2019-03-20T23:26:57.977Z,6.08
2019-03-20T23:29:32.731Z,7.30
2019-03-20T23:32:06.402Z,7.50
2019-03-20T23:37:38.696Z,9.95
2019-03-20T23:40:16.018Z,6.67
2019-03-20T23:43:08.857Z,12.03
2019-03-20T23:45:43.051Z,10.70
2019-03-20T23:48:29.881Z,7.42
2019-03-20T23:51:14.605Z,8.23
2019-03-20T23:53:47.252Z,9.85
2019-03-20T23:56:16.479Z,8.90
2019-03-20T23:58:45.773Z,11.55
